Time;durP1;ratioP1;P1;durP2;ratioP2;P2;SDS_P1;SDS_P2;PMS_P1;PMS_P2;Temp;Humidity;BMP_temperature;BMP_pressure;BME280_temperature;BME280_humidity;BME280_pressure;Samples;Min_cycle;Max_cycle;Signal;HPM_P1;HPM_P2
2022/01/18 00:01:21;;;;;;;28.80;5.00;;;;;;;-0.76;94.53;102295.47;5007477;28;20111;-72
2022/01/18 00:03:46;;;;;;;22.00;4.90;;;;;;;-0.71;95.27;102294.06;5009633;28;20500;-72
2022/01/18 00:06:11;;;;;;;24.53;4.53;;;;;;;-0.67;95.53;102289.97;5011063;28;20129;-72
2022/01/18 00:08:38;;;;;;;27.23;5.00;;;;;;;-0.78;94.73;102275.41;5010080;28;20061;-72
2022/01/18 00:11:03;;;;;;;24.80;3.97;;;;;;;-0.85;94.21;102268.00;5011385;28;20144;-72
2022/01/18 00:14:09;;;;;;;22.07;5.13;;;;;;;-0.95;93.76;102280.31;5011368;28;20129;-72
2022/01/18 00:18:51;;;;;;;24.07;5.57;;;;;;;-0.98;94.97;102284.41;5011196;28;20038;-72
2022/01/18 00:21:24;;;;;;;19.97;4.33;;;;;;;-0.96;95.20;102286.31;5011228;28;20065;-72
2022/01/18 00:23:54;;;;;;;30.60;4.40;;;;;;;-0.94;94.95;102289.91;5018452;28;20041;-72
2022/01/18 00:26:20;;;;;;;30.53;5.83;;;;;;;-0.93;95.25;102296.88;5010715;28;20042;-72
2022/01/18 00:28:51;;;;;;;30.47;4.87;;;;;;;-0.91;95.04;102305.66;5011130;28;20488;-72
2022/01/18 00:31:39;;;;;;;33.20;5.77;;;;;;;-0.89;94.79;102304.09;5011110;28;20092;-72
2022/01/18 00:39:02;;;;;;;26.23;4.17;;;;;;;-1.06;95.09;102309.78;5011042;28;20034;-73
2022/01/18 00:41:28;;;;;;;23.70;5.23;;;;;;;-1.08;95.21;102308.78;5009931;28;20061;-72
2022/01/18 00:43:54;;;;;;;33.03;5.03;;;;;;;-1.06;94.66;102314.97;5010921;28;20119;-72
2022/01/18 00:46:20;;;;;;;21.83;4.27;;;;;;;-1.11;94.31;102331.88;5010828;28;20508;-72
2022/01/18 00:48:45;;;;;;;17.00;3.53;;;;;;;-1.18;94.19;102337.44;5010699;28;20034;-72
2022/01/18 00:51:13;;;;;;;23.87;5.27;;;;;;;-1.19;94.71;102344.31;5014503;28;20072;-72
2022/01/18 00:53:42;;;;;;;32.37;5.77;;;;;;;-1.19;94.28;102356.38;5014660;28;20034;-72
2022/01/18 00:56:20;;;;;;;28.23;5.30;;;;;;;-1.15;94.81;102366.16;5013580;28;20041;-72
2022/01/18 00:58:47;;;;;;;20.70;4.20;;;;;;;-1.11;95.10;102365.56;5026691;28;20045;-73
2022/01/18 01:01:14;;;;;;;29.83;5.00;;;;;;;-1.19;95.00;102374.50;5014402;28;20037;-72
2022/01/18 01:03:39;;;;;;;35.77;4.90;;;;;;;-1.18;94.83;102365.94;5013794;28;20707;-72
2022/01/18 01:06:06;;;;;;;24.40;4.33;;;;;;;-1.14;95.14;102360.19;5013935;28;20037;-72
2022/01/18 01:08:34;;;;;;;25.17;4.30;;;;;;;-1.15;94.70;102361.88;5010457;28;20100;-72
2022/01/18 01:11:00;;;;;;;29.93;5.40;;;;;;;-1.17;94.93;102359.97;5017334;28;20042;-72
2022/01/18 01:13:27;;;;;;;21.67;4.10;;;;;;;-1.15;95.17;102355.81;5014197;28;20120;-72
2022/01/18 01:34:50;;;;;;;21.03;4.43;;;;;;;-1.27;94.88;102373.06;5013653;28;20038;-72
2022/01/18 01:41:47;;;;;;;27.57;5.33;;;;;;;-1.23;94.57;102377.66;5010483;28;20034;-72
2022/01/18 01:43:13;;;;;;;33.87;4.57;;;;;;;-1.22;94.86;102375.19;5012466;28;20435;-72
2022/01/18 01:45:39;;;;;;;20.03;4.10;;;;;;;-1.22;95.27;102375.19;5010014;28;20038;-72
2022/01/18 01:48:05;;;;;;;28.37;6.17;;;;;;;-1.16;95.31;102377.31;5013545;28;20034;-72
2022/01/18 01:50:51;;;;;;;28.33;4.43;;;;;;;-1.10;95.48;102377.75;5008466;28;20033;-72
2022/01/18 01:53:21;;;;;;;23.77;4.17;;;;;;;-1.07;94.86;102375.38;5012033;28;20034;-73
2022/01/18 01:55:47;;;;;;;28.13;4.97;;;;;;;-1.06;95.41;102379.75;5013043;28;20030;-72
2022/01/18 01:58:12;;;;;;;42.10;6.30;;;;;;;-1.11;95.37;102375.94;5012908;28;20038;-72
2022/01/18 02:00:44;;;;;;;25.00;5.03;;;;;;;-1.16;94.37;102383.38;5012101;28;20041;-72
2022/01/18 02:03:10;;;;;;;36.22;5.38;;;;;;;-1.22;94.33;102385.53;5020576;28;20044;-72
2022/01/18 02:05:36;;;;;;;33.43;4.77;;;;;;;-1.21;95.01;102381.25;5013004;28;20539;-72
2022/01/18 02:08:01;;;;;;;34.90;5.20;;;;;;;-1.28;94.97;102389.38;5013162;28;20037;-72
2022/01/18 02:10:26;;;;;;;24.50;4.87;;;;;;;-1.23;95.46;102382.84;5013076;28;20404;-72
2022/01/18 02:12:52;;;;;;;28.10;4.60;;;;;;;-1.18;95.58;102387.56;5013166;28;20491;-72
2022/01/18 02:15:19;;;;;;;27.50;4.97;;;;;;;-1.15;95.09;102389.50;5012840;28;20121;-72
2022/01/18 02:23:18;;;;;;;28.67;4.97;;;;;;;-1.14;95.58;102379.22;5010448;28;20104;-72
2022/01/18 02:25:43;;;;;;;32.53;4.33;;;;;;;-1.13;94.86;102387.88;5012562;28;20045;-72
2022/01/18 02:28:10;;;;;;;34.43;4.97;;;;;;;-1.12;94.80;102388.00;5010872;28;20072;-72
2022/01/18 02:30:35;;;;;;;32.47;5.43;;;;;;;-1.11;95.32;102383.72;5012671;28;20041;-72
2022/01/18 02:33:01;;;;;;;32.93;5.30;;;;;;;-1.11;94.82;102387.19;5012766;28;20040;-72
2022/01/18 02:35:26;;;;;;;30.23;5.13;;;;;;;-1.11;95.22;102378.53;5011869;28;20121;-72
2022/01/18 02:37:53;;;;;;;32.50;5.57;;;;;;;-1.11;94.57;102369.06;5012439;28;20088;-72
2022/01/18 02:40:18;;;;;;;27.53;5.43;;;;;;;-1.13;94.73;102364.56;5012627;28;20038;-72
2022/01/18 02:42:55;;;;;;;26.50;4.53;;;;;;;-1.19;94.91;102359.84;5012496;28;20120;-72
2022/01/18 02:45:20;;;;;;;23.60;5.03;;;;;;;-1.25;93.91;102359.44;5011831;28;20038;-72
2022/01/18 02:47:46;;;;;;;28.80;4.73;;;;;;;-1.24;94.91;102356.03;5012337;28;20408;-72
2022/01/18 02:50:11;;;;;;;24.80;4.77;;;;;;;-1.23;94.94;102357.84;5012455;28;20048;-72
2022/01/18 02:52:37;;;;;;;27.40;5.73;;;;;;;-1.22;94.86;102356.16;5012428;28;20026;-72
2022/01/18 02:55:02;;;;;;;34.60;5.90;;;;;;;-1.23;95.02;102351.75;5012096;28;20025;-72
2022/01/18 02:57:28;;;;;;;33.83;5.03;;;;;;;-1.22;94.76;102348.38;5012297;28;20496;-72
2022/01/18 03:00:15;;;;;;;31.07;4.80;;;;;;;-1.23;95.08;102356.94;5012234;28;20055;-72
2022/01/18 03:05:24;;;;;;;29.40;4.77;;;;;;;-1.26;95.02;102364.50;5010330;28;20069;-72
2022/01/18 03:07:49;;;;;;;28.33;5.73;;;;;;;-1.25;94.89;102361.13;5011630;28;20076;-72
2022/01/18 03:10:16;;;;;;;35.50;5.90;;;;;;;-1.25;94.85;102366.31;5011422;28;20120;-72
2022/01/18 03:12:42;;;;;;;39.77;5.73;;;;;;;-1.30;94.39;102363.38;5012055;28;20092;-72
2022/01/18 03:15:09;;;;;;;30.00;5.00;;;;;;;-1.31;94.32;102359.00;5012006;28;20632;-72
2022/01/18 03:17:35;;;;;;;24.47;4.83;;;;;;;-1.36;93.98;102356.09;5011968;28;20488;-72
2022/01/18 03:20:00;;;;;;;21.17;4.47;;;;;;;-1.39;94.33;102358.47;5012050;28;20042;-72
2022/01/18 03:22:26;;;;;;;32.10;5.13;;;;;;;-1.37;94.80;102359.44;5011926;28;20076;-72
2022/01/18 03:25:02;;;;;;;32.17;5.93;;;;;;;-1.36;94.54;102360.38;5011576;28;20048;-72
2022/01/18 03:30:13;;;;;;;24.80;5.03;;;;;;;-1.40;94.16;102359.22;5011793;28;20500;-72
2022/01/18 03:32:39;;;;;;;31.97;5.53;;;;;;;-1.48;93.54;102362.97;5011807;28;20080;-72
2022/01/18 03:35:07;;;;;;;33.03;5.60;;;;;;;-1.56;93.38;102367.59;5011508;28;20026;-72
2022/01/18 03:37:32;;;;;;;29.67;5.80;;;;;;;-1.56;93.83;102366.69;5011582;28;20393;-73
2022/01/18 03:39:58;;;;;;;34.47;5.80;;;;;;;-1.52;94.12;102371.28;5011580;28;20172;-72
2022/01/18 03:44:55;;;;;;;36.57;6.03;;;;;;;-1.49;94.25;102376.72;5010837;28;20046;-72
2022/01/18 03:47:21;;;;;;;25.40;5.40;;;;;;;-1.47;94.21;102382.88;5011125;28;20025;-72
2022/01/18 03:49:46;;;;;;;34.47;6.57;;;;;;;-1.43;94.89;102390.09;5011400;28;20090;-73
2022/01/18 03:52:11;;;;;;;35.17;5.40;;;;;;;-1.52;94.34;102386.81;5011748;28;20040;-72
2022/01/18 03:54:42;;;;;;;29.57;4.13;;;;;;;-1.58;93.75;102392.47;5011152;28;20041;-72
2022/01/18 03:57:10;;;;;;;32.67;4.80;;;;;;;-1.63;94.00;102390.34;5011370;28;20509;-72
2022/01/18 03:59:36;;;;;;;34.07;5.83;;;;;;;-1.68;93.57;102397.75;5011288;28;20053;-72
2022/01/18 04:02:01;;;;;;;25.60;4.53;;;;;;;-1.73;93.82;102393.03;5011016;28;20042;-72
2022/01/18 04:04:27;;;;;;;30.27;5.93;;;;;;;-1.74;93.67;102399.91;5009469;28;20029;-73
2022/01/18 04:06:52;;;;;;;28.80;5.13;;;;;;;-1.68;94.16;102404.63;5011145;28;20190;-73
2022/01/18 04:09:19;;;;;;;31.60;5.03;;;;;;;-1.64;94.37;102409.25;5011279;28;20042;-72
2022/01/18 04:11:44;;;;;;;32.27;5.00;;;;;;;-1.61;94.50;102399.13;5010973;28;20385;-72
2022/01/18 04:14:10;;;;;;;45.07;5.90;;;;;;;-1.57;94.27;102409.81;5011086;28;20049;-73
2022/01/18 04:16:43;;;;;;;37.57;6.60;;;;;;;-1.63;93.97;102413.63;5010959;28;20041;-72
2022/01/18 04:25:47;;;;;;;34.00;6.03;;;;;;;-1.67;94.28;102411.63;5011285;28;20071;-72
2022/01/18 04:27:37;;;;;;;30.97;4.87;;;;;;;-1.81;93.50;102413.19;5013343;28;20030;-72
2022/01/18 04:30:04;;;;;;;35.93;5.00;;;;;;;-1.80;94.31;102408.13;5013232;28;20121;-72
2022/01/18 04:32:29;;;;;;;19.77;4.30;;;;;;;-1.79;94.58;102402.16;5014983;28;20189;-72
2022/01/18 04:34:55;;;;;;;35.67;6.20;;;;;;;-1.80;94.28;102405.53;5013427;28;20034;-73
2022/01/18 04:37:20;;;;;;;34.60;4.90;;;;;;;-1.69;94.50;102415.78;5014760;28;20404;-72
2022/01/18 04:39:46;;;;;;;31.20;4.70;;;;;;;-1.64;94.70;102428.28;5013558;28;20144;-72
2022/01/18 04:42:17;;;;;;;21.77;4.83;;;;;;;-1.58;93.86;102433.00;5014651;28;20048;-72
2022/01/18 04:50:11;;;;;;;34.77;6.00;;;;;;;-1.09;94.24;102439.16;5014633;28;20117;-73
2022/01/18 04:52:36;;;;;;;24.13;4.27;;;;;;;-0.97;94.56;102432.25;5014550;28;20167;-73
2022/01/18 04:55:03;;;;;;;27.83;5.77;;;;;;;-0.89;93.86;102435.41;5014428;28;20037;-73
2022/01/18 05:00:13;;;;;;;30.90;5.63;;;;;;;-0.76;93.50;102434.53;5014389;28;20116;-73
2022/01/18 05:02:38;;;;;;;24.67;5.27;;;;;;;-0.67;93.44;102441.28;5014448;28;20107;-74
2022/01/18 05:05:04;;;;;;;25.57;5.13;;;;;;;-0.56;93.87;102443.72;5013533;28;20045;-74
2022/01/18 05:07:30;;;;;;;24.03;4.63;;;;;;;-0.52;93.12;102436.25;5014121;28;20053;-73
2022/01/18 05:09:55;;;;;;;33.63;5.47;;;;;;;-0.42;92.72;102442.97;5014235;28;20042;-73
2022/01/18 05:12:36;;;;;;;24.20;5.13;;;;;;;-0.34;92.81;102441.81;5020284;28;20049;-73
2022/01/18 05:15:08;;;;;;;27.50;5.07;;;;;;;-0.25;92.05;102438.94;5014160;28;20148;-73
2022/01/18 05:17:44;;;;;;;28.75;5.05;;;;;;;-0.18;92.25;102445.44;5018915;28;20049;-73
2022/01/18 05:23:01;;;;;;;21.57;4.70;;;;;;;0.01;92.42;102445.00;5014196;28;20188;-72
2022/01/18 05:25:28;;;;;;;27.47;5.43;;;;;;;0.11;92.06;102453.50;5009539;28;20033;-73
2022/01/18 05:27:55;;;;;;;26.13;4.93;;;;;;;0.24;91.93;102447.44;5008791;28;20042;-73
2022/01/18 05:30:21;;;;;;;28.67;5.17;;;;;;;0.33;91.82;102450.63;5017183;28;20036;-72
2022/01/18 05:32:46;;;;;;;27.00;5.63;;;;;;;0.37;91.81;102439.66;5019731;28;20026;-72
2022/01/18 05:35:11;;;;;;;27.03;5.70;;;;;;;0.51;91.96;102458.75;5016113;28;20400;-72
2022/01/18 05:37:37;;;;;;;24.20;4.63;;;;;;;0.62;91.39;102462.03;5010370;28;20121;-72
2022/01/18 05:40:02;;;;;;;20.40;4.27;;;;;;;0.64;90.18;102465.63;5013202;28;20092;-73
2022/01/18 05:42:28;;;;;;;27.07;6.13;;;;;;;0.61;90.08;102462.84;5012859;28;20038;-73
2022/01/18 05:44:53;;;;;;;20.75;5.18;;;;;;;0.69;90.77;102459.03;5013190;28;20049;-73
2022/01/18 05:47:18;;;;;;;21.07;5.27;;;;;;;0.74;90.82;102459.34;5011352;28;20048;-72
2022/01/18 05:49:44;;;;;;;26.07;6.17;;;;;;;0.77;90.17;102465.63;5011579;28;20037;-72
2022/01/18 05:52:09;;;;;;;16.50;4.07;;;;;;;0.86;89.99;102470.50;5010701;28;20226;-73
2022/01/18 05:54:34;;;;;;;22.70;5.40;;;;;;;0.83;89.91;102466.00;5010221;28;20120;-75
2022/01/18 05:57:00;;;;;;;28.30;5.13;;;;;;;0.86;89.91;102471.44;5013102;28;20034;-73
2022/01/18 05:59:34;;;;;;;20.25;5.68;;;;;;;0.90;89.48;102479.44;5012684;28;20183;-73
2022/01/18 06:02:03;;;;;;;23.03;6.03;;;;;;;0.94;88.98;102479.69;5010440;28;20124;-73
2022/01/18 06:07:12;;;;;;;39.63;7.00;;;;;;;1.00;88.99;102468.81;5012776;28;20037;-73
2022/01/18 06:09:38;;;;;;;31.20;6.70;;;;;;;1.04;88.77;102461.28;5013213;28;20064;-73
2022/01/18 06:12:04;;;;;;;26.23;6.03;;;;;;;1.12;88.51;102456.56;5010652;28;20038;-73
2022/01/18 06:14:29;;;;;;;24.47;6.27;;;;;;;1.17;88.41;102456.88;5011163;28;20583;-73
2022/01/18 06:16:54;;;;;;;28.75;7.32;;;;;;;1.24;88.27;102466.84;5011912;28;20033;-73
2022/01/18 06:19:20;;;;;;;30.60;6.43;;;;;;;1.33;88.32;102463.91;5011329;28;20518;-73
2022/01/18 06:21:45;;;;;;;24.13;5.25;;;;;;;1.39;88.35;102479.91;5012870;28;20400;-73
2022/01/18 06:24:11;;;;;;;28.60;6.22;;;;;;;1.46;88.42;102476.88;5013055;28;20042;-73
2022/01/18 06:26:37;;;;;;;31.73;6.40;;;;;;;1.51;87.98;102465.06;5012499;28;20038;-73
2022/01/18 06:29:03;;;;;;;25.05;5.55;;;;;;;1.57;87.51;102470.63;5012867;28;20145;-73
2022/01/18 06:31:29;;;;;;;25.00;5.03;;;;;;;1.61;87.42;102470.03;5012809;28;20504;-73
2022/01/18 06:33:54;;;;;;;24.05;5.20;;;;;;;1.56;86.90;102470.56;5012776;28;20412;-73
2022/01/18 06:36:20;;;;;;;27.65;4.90;;;;;;;1.49;86.46;102479.69;5009762;28;20025;-73
2022/01/18 06:38:45;;;;;;;22.45;4.85;;;;;;;1.52;86.28;102493.78;5011633;28;20034;-73
2022/01/18 06:41:11;;;;;;;17.73;4.90;;;;;;;1.59;86.65;102500.25;5011981;28;20112;-73
2022/01/18 06:43:36;;;;;;;26.13;6.05;;;;;;;1.66;87.02;102496.34;5009722;28;20044;-73
2022/01/18 06:46:01;;;;;;;29.85;5.40;;;;;;;1.70;86.60;102495.72;5006003;28;20066;-73
2022/01/18 06:48:27;;;;;;;24.20;5.10;;;;;;;1.69;86.50;102493.94;5006667;28;20038;-73
2022/01/18 06:50:52;;;;;;;20.45;4.57;;;;;;;1.65;86.41;102511.06;5012345;28;20052;-73
2022/01/18 06:53:17;;;;;;;29.33;5.90;;;;;;;1.66;86.26;102507.66;5012180;28;20091;-73
2022/01/18 06:55:43;;;;;;;25.85;4.80;;;;;;;1.77;86.06;102510.00;5012067;28;20084;-73
2022/01/18 06:58:09;;;;;;;31.27;6.10;;;;;;;1.78;85.78;102502.28;5010742;28;20416;-73
2022/01/18 07:00:34;;;;;;;22.90;5.85;;;;;;;1.82;85.92;102503.38;5012073;28;20045;-73
2022/01/18 07:02:59;;;;;;;22.25;5.38;;;;;;;1.73;85.84;102501.13;5011267;28;20045;-72
2022/01/18 07:05:25;;;;;;;29.23;5.15;;;;;;;1.78;86.17;102506.59;5011824;28;20034;-73
2022/01/18 07:07:50;;;;;;;30.25;5.72;;;;;;;1.82;86.27;102519.91;5012029;28;20061;-73
2022/01/18 07:10:16;;;;;;;31.52;5.70;;;;;;;1.86;85.81;102523.59;5011971;28;20038;-73
2022/01/18 07:12:41;;;;;;;19.25;5.22;;;;;;;1.91;85.87;102520.47;5012018;28;20080;-73
2022/01/18 07:15:07;;;;;;;26.85;4.90;;;;;;;1.94;85.48;102515.44;5018259;28;20061;-73
2022/01/18 07:17:38;;;;;;;19.08;4.38;;;;;;;1.96;85.76;102523.34;5011646;28;20034;-73
2022/01/18 07:20:05;;;;;;;26.77;4.60;;;;;;;1.94;85.26;102532.78;5007144;28;20600;-73
2022/01/18 07:22:30;;;;;;;21.30;4.75;;;;;;;1.93;85.35;102544.88;5010092;28;20419;-73
2022/01/18 07:24:58;;;;;;;23.65;4.68;;;;;;;1.95;85.35;102548.50;5008710;28;20034;-73
2022/01/18 07:27:23;;;;;;;18.58;4.22;;;;;;;1.97;85.47;102548.59;5011048;28;20038;-73
2022/01/18 07:29:49;;;;;;;19.45;4.30;;;;;;;1.94;84.89;102541.50;5011673;28;20107;-73
2022/01/18 07:32:15;;;;;;;27.92;5.25;;;;;;;1.87;84.72;102543.63;5011676;28;20041;-73
2022/01/18 07:34:48;;;;;;;26.08;5.55;;;;;;;1.87;85.26;102541.03;5018690;28;20034;-73
2022/01/18 07:37:14;;;;;;;22.13;5.15;;;;;;;1.84;85.47;102552.16;5011521;28;20128;-73
2022/01/18 07:39:39;;;;;;;23.70;4.97;;;;;;;1.91;85.33;102561.22;5011537;28;20193;-73
2022/01/18 07:42:05;;;;;;;22.00;6.50;;;;;;;1.95;85.21;102561.50;5011729;28;20073;-73
2022/01/18 07:44:30;;;;;;;25.05;5.82;;;;;;;2.05;85.60;102557.78;5011119;28;20088;-73
2022/01/18 07:46:56;;;;;;;25.00;5.43;;;;;;;2.14;86.77;102554.81;5011395;28;20053;-73
2022/01/18 07:49:21;;;;;;;20.17;5.28;;;;;;;2.24;86.42;102558.88;5011211;28;20032;-73
2022/01/18 07:51:47;;;;;;;21.20;6.50;;;;;;;2.29;84.85;102565.28;5012391;28;20117;-72
2022/01/18 07:54:12;;;;;;;20.88;6.75;;;;;;;2.26;85.62;102565.97;5010270;28;20149;-73
2022/01/18 07:56:41;;;;;;;24.35;4.68;;;;;;;2.30;84.23;102569.66;5010802;28;20125;-73
2022/01/18 07:59:07;;;;;;;18.95;3.72;;;;;;;2.31;83.73;102574.09;5007757;28;20049;-73
2022/01/18 08:01:32;;;;;;;16.73;3.53;;;;;;;2.29;83.17;102576.59;5007436;28;20044;-72
2022/01/18 08:03:58;;;;;;;18.77;3.70;;;;;;;2.24;83.68;102577.13;5011357;28;20046;-72
2022/01/18 08:06:23;;;;;;;21.30;4.18;;;;;;;2.26;83.81;102591.16;5010792;28;20073;-73
2022/01/18 08:08:48;;;;;;;23.25;5.63;;;;;;;2.31;83.61;102590.63;5009180;28;20087;-73
2022/01/18 08:11:15;;;;;;;21.05;4.18;;;;;;;2.35;83.62;102589.06;5009910;28;20435;-73
2022/01/18 08:13:44;;;;;;;15.90;4.03;;;;;;;2.38;83.72;102589.25;5011203;28;20037;-73
2022/01/18 08:18:59;;;;;;;16.38;4.03;;;;;;;2.53;83.34;102597.09;5007667;28;20034;-73
2022/01/18 08:21:25;;;;;;;25.45;3.85;;;;;;;2.54;83.48;102589.38;5011258;28;20041;-73
2022/01/18 08:23:51;;;;;;;23.50;4.38;;;;;;;2.57;83.10;102589.56;5011190;28;20030;-73
2022/01/18 08:26:17;;;;;;;24.88;4.20;;;;;;;2.57;83.21;102584.34;5009452;28;20046;-72
2022/01/18 08:28:42;;;;;;;20.88;3.72;;;;;;;2.62;83.18;102587.25;5009457;28;20033;-72
2022/01/18 08:31:08;;;;;;;15.32;3.75;;;;;;;2.63;83.28;102599.44;5009733;28;20562;-72
2022/01/18 08:33:33;;;;;;;23.65;4.22;;;;;;;2.74;83.13;102602.69;5010913;28;20054;-72
2022/01/18 08:36:00;;;;;;;23.52;4.82;;;;;;;2.84;83.14;102605.03;5009336;28;20037;-73
2022/01/18 08:38:27;;;;;;;20.67;3.08;;;;;;;2.90;83.05;102605.38;5008850;28;20117;-73
2022/01/18 08:40:54;;;;;;;26.05;4.05;;;;;;;2.91;82.27;102617.63;5010669;28;20033;-73
2022/01/18 08:43:20;;;;;;;20.83;4.35;;;;;;;2.96;82.32;102610.03;5009695;28;20049;-73
2022/01/18 08:45:45;;;;;;;22.50;4.15;;;;;;;2.91;82.21;102617.63;5010274;28;20030;-73
2022/01/18 08:48:11;;;;;;;16.10;4.03;;;;;;;2.96;82.16;102625.69;5010756;28;20385;-73
2022/01/18 08:50:36;;;;;;;20.75;3.78;;;;;;;3.00;81.65;102614.66;5010540;28;20113;-72
2022/01/18 08:53:01;;;;;;;18.95;4.05;;;;;;;3.08;82.21;102610.75;5010393;28;20061;-73
2022/01/18 08:55:27;;;;;;;16.83;3.80;;;;;;;3.13;82.18;102616.25;5010457;28;20033;-73
2022/01/18 08:57:52;;;;;;;17.83;4.45;;;;;;;3.14;81.88;102631.09;5010816;28;20036;-73
2022/01/18 09:00:18;;;;;;;17.92;4.43;;;;;;;3.27;82.32;102633.59;5009605;28;20034;-73
2022/01/18 09:02:44;;;;;;;23.65;5.72;;;;;;;3.33;82.08;102628.75;5010819;28;20120;-73
2022/01/18 09:05:10;;;;;;;25.00;5.20;;;;;;;3.38;81.56;102632.50;5007616;28;20132;-73
2022/01/18 09:07:37;;;;;;;20.08;4.40;;;;;;;3.43;80.96;102638.88;5010467;28;20030;-72
2022/01/18 09:10:07;;;;;;;17.48;3.42;;;;;;;3.47;81.11;102643.44;5013407;28;20088;-73
2022/01/18 09:12:34;;;;;;;14.75;3.80;;;;;;;3.51;81.31;102642.81;5013917;28;20038;-73
2022/01/18 09:15:01;;;;;;;15.77;3.35;;;;;;;3.49;80.84;102647.06;5014039;28;20042;-73
2022/01/18 09:17:28;;;;;;;27.45;4.65;;;;;;;3.57;80.92;102638.78;5013792;28;20041;-73
2022/01/18 09:19:54;;;;;;;21.83;4.63;;;;;;;3.60;80.70;102649.38;5014129;28;20042;-73
2022/01/18 09:22:20;;;;;;;21.40;5.30;;;;;;;3.60;80.72;102646.75;5014116;28;20069;-73
2022/01/18 09:24:46;;;;;;;26.63;4.68;;;;;;;3.64;80.46;102656.56;5013788;28;20125;-72
2022/01/18 09:27:11;;;;;;;21.05;5.38;;;;;;;3.69;80.56;102668.16;5014011;28;20526;-73
2022/01/18 09:29:39;;;;;;;23.45;4.50;;;;;;;3.74;80.52;102661.47;5014064;28;20038;-73
2022/01/18 09:32:05;;;;;;;19.77;4.60;;;;;;;3.73;79.88;102664.91;5014054;28;20112;-72
2022/01/18 09:34:30;;;;;;;21.88;3.72;;;;;;;3.75;80.22;102665.91;5013568;28;20097;-73
2022/01/18 09:36:56;;;;;;;19.92;3.65;;;;;;;3.71;79.72;102663.94;5011009;28;20038;-73
2022/01/18 09:39:22;;;;;;;20.08;3.90;;;;;;;3.77;80.27;102669.47;5012621;28;20117;-73
2022/01/18 09:41:51;;;;;;;19.63;4.25;;;;;;;3.82;79.74;102675.84;5012351;28;20025;-73
2022/01/18 09:44:18;;;;;;;17.27;3.58;;;;;;;3.73;80.73;102670.13;5013616;28;20489;-72
2022/01/18 09:46:44;;;;;;;17.45;3.78;;;;;;;3.84;81.19;102671.63;5013188;28;20037;-72
2022/01/18 09:49:09;;;;;;;19.75;4.00;;;;;;;3.86;80.43;102674.34;5013545;28;20034;-73
2022/01/18 09:51:34;;;;;;;15.68;3.42;;;;;;;3.92;80.81;102667.72;5020612;28;20104;-73
2022/01/18 09:54:01;;;;;;;16.75;4.05;;;;;;;3.85;80.32;102657.78;5013546;28;20041;-72
2022/01/18 09:56:26;;;;;;;16.90;3.60;;;;;;;3.85;81.10;102668.22;5013215;28;20038;-73
2022/01/18 09:58:51;;;;;;;18.58;3.83;;;;;;;3.95;81.42;102669.59;5013479;28;20377;-73
2022/01/18 10:01:18;;;;;;;19.42;3.50;;;;;;;4.04;81.23;102667.50;5013456;28;20504;-73
2022/01/18 10:03:44;;;;;;;16.08;3.35;;;;;;;4.12;80.99;102663.59;5012004;28;20034;-72
2022/01/18 10:06:10;;;;;;;18.30;3.13;;;;;;;4.22;81.01;102664.06;5009502;28;20120;-73
2022/01/18 10:08:38;;;;;;;20.90;4.07;;;;;;;4.23;81.15;102681.56;5009249;28;20045;-73
2022/01/18 10:11:16;;;;;;;16.58;3.83;;;;;;;4.31;81.55;102681.16;5010950;28;20037;-73
2022/01/18 10:13:45;;;;;;;24.00;4.35;;;;;;;4.47;81.22;102676.75;5011836;28;20057;-73
2022/01/18 10:16:13;;;;;;;20.25;3.83;;;;;;;4.55;80.93;102680.66;5012743;28;20048;-73
2022/01/18 10:18:46;;;;;;;16.80;3.47;;;;;;;4.55;80.50;102676.34;5012997;28;20040;-73
2022/01/18 10:21:35;;;;;;;16.52;3.45;;;;;;;4.45;80.26;102679.28;5012598;28;20459;-73
2022/01/18 10:24:16;;;;;;;25.40;4.78;;;;;;;4.48;79.83;102678.53;5013020;28;20141;-73
2022/01/18 10:26:43;;;;;;;20.17;4.43;;;;;;;4.44;81.26;102668.75;5012533;28;20092;-73
2022/01/18 10:29:10;;;;;;;18.20;3.30;;;;;;;4.50;80.57;102666.44;5013334;28;20029;-72
2022/01/18 10:34:27;;;;;;;23.90;5.05;;;;;;;4.53;81.42;102666.59;5009267;28;20439;-73
2022/01/18 10:36:58;;;;;;;19.35;4.63;;;;;;;4.58;81.12;102665.13;5012557;28;20052;-73
2022/01/18 10:39:26;;;;;;;22.30;6.15;;;;;;;4.53;81.31;102664.00;5012672;28;20042;-73
2022/01/18 10:41:52;;;;;;;16.92;4.57;;;;;;;4.59;80.64;102667.84;5012536;28;20148;-73
2022/01/18 10:44:18;;;;;;;22.17;4.00;;;;;;;4.61;80.33;102675.75;5012561;28;20116;-73
2022/01/18 10:46:55;;;;;;;21.20;4.90;;;;;;;4.57;80.94;102666.84;5012212;28;20030;-73
2022/01/18 10:49:39;;;;;;;22.15;4.93;;;;;;;4.64;80.68;102656.72;5012568;28;20069;-73
2022/01/18 10:52:10;;;;;;;15.02;3.58;;;;;;;4.64;80.08;102657.63;5009136;28;20065;-73
2022/01/18 10:54:39;;;;;;;15.43;4.67;;;;;;;4.60;80.02;102663.50;5012189;28;20045;-73
2022/01/18 10:57:06;;;;;;;17.65;4.18;;;;;;;4.57;80.17;102669.47;5019289;28;20042;-73
2022/01/18 10:59:33;;;;;;;19.85;4.07;;;;;;;4.61;80.60;102668.84;5012474;28;20053;-74
2022/01/18 11:02:13;;;;;;;16.45;3.35;;;;;;;4.73;80.21;102655.47;5012328;28;20471;-73
2022/01/18 11:04:43;;;;;;;18.20;3.35;;;;;;;4.80;80.33;102652.38;5011778;28;20292;-73
2022/01/18 11:07:10;;;;;;;17.30;4.22;;;;;;;4.77;79.91;102648.72;5012100;28;20076;-73
2022/01/18 11:09:35;;;;;;;22.60;4.53;;;;;;;4.76;80.53;102654.75;5011864;28;20084;-73
2022/01/18 11:12:01;;;;;;;16.30;3.83;;;;;;;4.83;80.49;102642.06;5012182;28;20037;-73
2022/01/18 11:14:29;;;;;;;15.35;3.83;;;;;;;4.92;80.31;102646.84;5018896;28;20033;-73
2022/01/18 11:16:57;;;;;;;18.95;4.05;;;;;;;4.91;79.79;102647.69;5011471;28;20413;-73
2022/01/18 11:21:51;;;;;;;14.23;3.80;;;;;;;4.93;79.92;102647.75;5011830;28;20030;-73
2022/01/18 11:24:18;;;;;;;23.05;4.15;;;;;;;4.87;80.29;102650.94;5011897;28;20038;-73
2022/01/18 11:26:45;;;;;;;21.10;4.30;;;;;;;4.89;79.79;102649.31;5011530;28;20046;-72
2022/01/18 11:29:15;;;;;;;20.83;4.40;;;;;;;4.74;80.31;102646.81;5009848;28;20095;-73
2022/01/18 11:31:41;;;;;;;19.05;4.45;;;;;;;4.67;80.72;102647.31;5011014;28;20128;-73
2022/01/18 11:34:11;;;;;;;15.30;3.72;;;;;;;4.72;81.03;102656.31;5011697;28;20113;-73
2022/01/18 11:36:44;;;;;;;17.75;4.72;;;;;;;4.75;81.26;102640.75;5010969;28;20693;-72
2022/01/18 11:39:11;;;;;;;;;;;;;;;4.74;81.52;102636.38;5008262;28;20084;-73
2022/01/18 11:41:37;;;;;;;20.45;4.47;;;;;;;4.80;81.36;102635.78;5005047;28;20427;-73
2022/01/18 11:44:17;;;;;;;19.05;4.65;;;;;;;4.87;81.79;102640.47;5010288;28;20041;-72
2022/01/18 11:46:52;;;;;;;20.65;4.40;;;;;;;4.95;80.56;102643.47;5010602;28;20038;-73
2022/01/18 11:49:29;;;;;;;17.45;3.95;;;;;;;5.05;81.02;102632.66;5020012;28;20092;-72
2022/01/18 11:52:05;;;;;;;17.45;4.25;;;;;;;5.05;nan;102646.63;5015408;28;20145;-73
2022/01/18 11:57:23;;;;;;;14.10;4.07;;;;;;;4.94;81.37;102639.09;5010340;28;20405;-73
2022/01/18 11:59:54;;;;;;;17.38;4.57;;;;;;;5.08;81.14;102643.28;5008839;28;20380;-73
2022/01/18 12:02:27;;;;;;;19.00;4.13;;;;;;;5.05;81.10;102633.56;5010847;28;20049;-73
2022/01/18 12:04:56;;;;;;;17.38;5.03;;;;;;;5.11;81.29;102637.28;5006508;28;20034;-73
2022/01/18 12:07:33;;;;;;;14.45;3.10;;;;;;;5.01;80.20;102646.44;5011224;28;20049;-73
2022/01/18 12:10:00;;;;;;;17.33;4.80;;;;;;;4.98;80.93;102660.25;5011393;28;20042;-73
2022/01/18 12:12:46;;;;;;;17.65;3.70;;;;;;;5.01;80.27;102657.78;5011417;28;20034;-73
2022/01/18 12:15:24;;;;;;;15.88;4.00;;;;;;;5.06;79.96;102650.19;5015856;28;20027;-73
2022/01/18 12:17:54;;;;;;;15.95;3.45;;;;;;;5.08;80.15;102650.25;5011103;28;20038;-73
2022/01/18 12:20:39;;;;;;;13.90;3.53;;;;;;;4.97;80.75;102650.59;5011287;28;20041;-73
2022/01/18 12:23:12;;;;;;;15.50;3.63;;;;;;;4.94;80.75;102660.03;5004176;28;20492;-73
2022/01/18 12:25:57;;;;;;;16.20;3.80;;;;;;;4.92;80.62;102657.31;5010727;28;20092;-73
2022/01/18 12:34:31;;;;;;;13.68;4.05;;;;;;;5.01;81.09;102652.56;5009977;28;20044;-74
2022/01/18 12:37:24;;;;;;;14.20;3.58;;;;;;;4.96;80.99;102650.53;5005579;28;20042;-73
2022/01/18 12:39:49;;;;;;;14.45;4.15;;;;;;;4.97;81.03;102634.00;5007811;28;20030;-73
2022/01/18 12:44:20;;;;;;;17.00;4.35;;;;;;;5.12;80.75;102637.38;5010918;28;20052;-73
2022/01/18 12:45:10;;;;;;;16.35;3.25;;;;;;;5.11;81.02;102643.47;5014354;28;20050;-73